Time;durP1;ratioP1;P1;durP2;ratioP2;P2;SDS_P1;SDS_P2;PMS_P1;PMS_P2;Temp;Humidity;BMP_temperature;BMP_pressure;BME280_temperature;BME280_humidity;BME280_pressure;Samples;Min_cycle;Max_cycle;Signal;HPM_P1;HPM_P2
2022/03/18 00:00:54;;;;;;;3.77;3.33;;;17.10;50.10;18.10;102934.00;;;;5047890;28;20172;-46
2022/03/18 00:03:20;;;;;;;3.70;3.40;;;17.00;50.10;18.10;102930.00;;;;5049271;28;20182;-45
2022/03/18 00:05:45;;;;;;;3.40;3.10;;;17.00;50.10;18.10;102938.00;;;;5049352;28;20170;-45
2022/03/18 00:08:11;;;;;;;3.40;3.10;;;17.00;50.10;18.10;102939.00;;;;5047042;28;20233;-46
2022/03/18 00:10:37;;;;;;;3.40;3.10;;;17.00;50.00;17.80;102939.00;;;;5048919;28;20308;-46
2022/03/18 00:13:03;;;;;;;3.93;3.30;;;17.00;50.10;18.00;102956.00;;;;5047970;28;20213;-46
2022/03/18 00:15:29;;;;;;;3.53;3.20;;;17.00;50.10;18.00;102952.00;;;;5049266;28;20175;-46
2022/03/18 00:17:55;;;;;;;4.50;3.30;;;16.90;50.10;18.00;102946.00;;;;5049081;28;20190;-45
2022/03/18 00:20:21;;;;;;;3.40;3.10;;;16.90;50.10;18.00;102947.00;;;;5049058;28;20551;-46
2022/03/18 00:22:47;;;;;;;3.50;3.20;;;16.90;50.10;18.00;102954.00;;;;5049232;28;20167;-46
2022/03/18 00:25:14;;;;;;;3.67;3.13;;;16.90;50.20;18.00;102949.00;;;;5049482;28;20178;-46
2022/03/18 00:27:42;;;;;;;3.43;3.13;;;16.90;50.20;17.90;102957.00;;;;5048774;28;20202;-44
2022/03/18 00:30:09;;;;;;;3.67;3.33;;;16.80;50.20;17.90;102951.00;;;;5049171;28;20163;-45
2022/03/18 00:32:41;;;;;;;3.30;3.03;;;16.80;50.20;17.70;102943.00;;;;5048524;28;20170;-44
2022/03/18 00:35:10;;;;;;;3.43;3.13;;;16.80;50.20;17.90;102947.00;;;;5047969;28;20170;-44
2022/03/18 00:37:37;;;;;;;3.33;3.03;;;16.80;50.20;17.90;102944.00;;;;5049163;28;20194;-45
2022/03/18 00:40:04;;;;;;;3.60;3.13;;;16.80;50.30;17.90;102961.00;;;;5047624;28;20190;-43
2022/03/18 00:42:31;;;;;;;3.43;3.13;;;16.70;50.10;17.90;102958.00;;;;5047752;28;20182;-44
2022/03/18 00:45:00;;;;;;;3.53;3.20;;;16.70;50.10;17.90;102961.00;;;;5050542;28;20194;-48
2022/03/18 00:52:54;;;;;;;3.77;3.10;;;16.70;50.10;17.80;102951.00;;;;5048317;28;20182;-46
2022/03/18 00:55:20;;;;;;;3.43;3.13;;;16.70;50.10;17.80;102943.00;;;;5048828;28;20174;-47
2022/03/18 00:57:46;;;;;;;3.23;2.93;;;16.70;50.00;17.80;102949.00;;;;5047956;28;20197;-45
2022/03/18 01:00:12;;;;;;;3.40;3.10;;;16.70;50.00;17.80;102957.00;;;;5048469;28;20178;-46
2022/03/18 01:02:38;;;;;;;3.17;2.93;;;16.70;50.00;17.80;102949.00;;;;5048243;28;20174;-45
2022/03/18 01:05:04;;;;;;;3.30;3.03;;;16.60;50.00;17.70;102926.00;;;;5047890;28;20658;-45
2022/03/18 01:07:30;;;;;;;3.10;2.80;;;16.60;50.00;17.70;102951.00;;;;5046617;28;20237;-46
2022/03/18 01:09:56;;;;;;;3.40;3.10;;;16.60;50.00;17.70;102954.00;;;;5047368;28;20197;-47
2022/03/18 01:12:22;;;;;;;3.20;2.90;;;16.60;49.90;17.70;102954.00;;;;5048129;28;20253;-46
2022/03/18 01:14:48;;;;;;;3.33;3.03;;;16.60;50.10;17.50;102956.00;;;;5048106;28;20170;-47
2022/03/18 01:17:13;;;;;;;2.90;2.70;;;16.50;50.00;17.70;102958.00;;;;5047303;28;20244;-44
2022/03/18 01:19:40;;;;;;;3.33;3.00;;;16.60;50.00;17.70;102962.00;;;;5047649;28;20289;-46
2022/03/18 01:22:06;;;;;;;3.37;3.07;;;16.60;50.00;17.70;102958.00;;;;5047657;28;20179;-45
2022/03/18 01:24:31;;;;;;;3.20;2.90;;;16.50;50.00;17.60;102961.00;;;;5048054;28;20166;-44
2022/03/18 01:26:57;;;;;;;3.40;3.10;;;16.50;50.00;17.60;102962.00;;;;5047672;28;20190;-46
2022/03/18 01:29:23;;;;;;;3.47;3.17;;;16.50;50.10;17.60;102974.00;;;;5048067;28;20174;-46
2022/03/18 01:31:48;;;;;;;3.33;3.03;;;16.50;50.00;17.60;102968.00;;;;5047320;28;20170;-47
2022/03/18 01:34:14;;;;;;;3.00;2.80;;;16.50;50.00;17.60;102969.00;;;;5047695;28;20228;-46
2022/03/18 01:36:40;;;;;;;3.20;2.90;;;16.40;49.90;17.50;102967.00;;;;5045788;28;20198;-45
2022/03/18 01:39:06;;;;;;;3.10;2.90;;;16.40;49.90;17.60;102975.00;;;;5046339;28;20155;-45
2022/03/18 01:41:33;;;;;;;3.20;2.90;;;16.40;49.90;17.50;102976.00;;;;5047232;28;20162;-45
2022/03/18 01:43:58;;;;;;;3.20;3.00;;;16.40;49.80;17.50;102975.00;;;;5047580;28;20174;-46
2022/03/18 01:46:24;;;;;;;3.17;2.87;;;16.40;49.80;17.50;102974.00;;;;5047057;28;20775;-46
2022/03/18 01:48:50;;;;;;;3.50;3.10;;;16.40;49.90;17.50;102981.00;;;;5047917;28;20194;-46
2022/03/18 01:51:15;;;;;;;3.30;3.00;;;16.40;50.00;17.50;102980.00;;;;5047141;28;20193;-46
2022/03/18 01:53:43;;;;;;;3.10;2.90;;;16.40;50.10;17.50;102977.00;;;;5046206;28;20810;-46
2022/03/18 01:56:08;;;;;;;3.10;2.90;;;16.30;50.10;17.50;102984.00;;;;5047050;28;20159;-45
2022/03/18 01:58:34;;;;;;;3.17;2.87;;;16.30;50.00;17.40;102980.00;;;;5047497;28;20216;-46
2022/03/18 02:01:00;;;;;;;3.30;3.10;;;16.30;50.00;17.40;102983.00;;;;5046205;28;20198;-46
2022/03/18 02:03:25;;;;;;;3.30;2.97;;;16.30;50.00;17.40;102992.00;;;;5047183;28;20199;-46
2022/03/18 02:05:51;;;;;;;3.10;2.80;;;16.30;50.00;17.40;102996.00;;;;5047125;28;20167;-48
2022/03/18 02:08:17;;;;;;;3.33;3.03;;;16.30;50.00;17.40;103003.00;;;;5050174;28;20651;-47
2022/03/18 02:10:43;;;;;;;3.20;2.90;;;16.30;50.00;17.40;102994.00;;;;5059365;28;20205;-46
2022/03/18 02:13:09;;;;;;;2.90;2.70;;;16.30;50.00;17.30;102993.00;;;;5059387;28;20166;-47
2022/03/18 02:15:34;;;;;;;3.00;2.80;;;16.20;50.00;17.30;102994.00;;;;5048382;28;20627;-46
2022/03/18 02:18:00;;;;;;;3.00;2.80;;;16.20;50.10;17.30;103006.00;;;;5047101;28;20251;-46
2022/03/18 02:20:26;;;;;;;2.97;2.67;;;16.20;50.00;17.30;103007.00;;;;5047317;28;20174;-51
2022/03/18 02:22:51;;;;;;;3.20;2.90;;;16.10;49.90;17.30;103005.00;;;;5046992;28;20181;-46
2022/03/18 02:25:17;;;;;;;2.90;2.70;;;16.20;50.10;17.30;103011.00;;;;5046847;28;20208;-45
2022/03/18 02:27:59;;;;;;;3.20;2.90;;;16.10;49.90;17.30;103001.00;;;;5046716;28;20218;-45
2022/03/18 02:30:28;;;;;;;2.90;2.70;;;16.10;49.90;17.20;103020.00;;;;5045846;28;20206;-46
2022/03/18 02:32:56;;;;;;;2.90;2.70;;;16.20;50.00;17.20;103015.00;;;;5046113;28;20186;-45
2022/03/18 02:35:22;;;;;;;3.73;2.77;;;16.10;49.90;17.20;103018.00;;;;5047194;28;20780;-47
2022/03/18 02:37:48;;;;;;;3.30;3.00;;;16.10;49.80;17.20;103022.00;;;;5050046;28;20209;-45
2022/03/18 02:40:17;;;;;;;2.97;2.63;;;16.10;49.90;17.20;103021.00;;;;5047182;28;20174;-45
2022/03/18 02:42:44;;;;;;;3.03;2.80;;;16.10;49.90;17.20;103030.00;;;;5046914;28;20166;-45
2022/03/18 02:45:10;;;;;;;3.00;2.80;;;16.10;49.90;17.10;103034.00;;;;5047295;28;20213;-45
2022/03/18 02:47:36;;;;;;;2.90;2.70;;;16.10;49.80;17.10;103038.00;;;;5047152;28;20695;-45
2022/03/18 02:50:01;;;;;;;2.80;2.60;;;16.00;49.80;17.10;103039.00;;;;5046397;28;20182;-46
2022/03/18 02:52:27;;;;;;;2.83;2.63;;;16.00;49.80;17.10;103034.00;;;;5046680;28;20245;-46
2022/03/18 02:54:53;;;;;;;2.87;2.67;;;16.00;49.90;17.10;103034.00;;;;5046646;28;20558;-44
2022/03/18 02:57:19;;;;;;;2.80;2.60;;;16.00;50.00;17.10;103046.00;;;;5045355;28;20843;-46
2022/03/18 02:59:45;;;;;;;3.20;2.90;;;16.00;50.10;17.10;103048.00;;;;5046660;28;20185;-47
2022/03/18 03:02:12;;;;;;;3.20;2.90;;;16.00;50.00;17.00;103048.00;;;;5045607;28;20178;-46
2022/03/18 03:07:58;;;;;;;3.07;2.77;;;15.90;49.90;17.00;103060.00;;;;5046856;28;20186;-46
2022/03/18 03:10:08;;;;;;;2.90;2.70;;;15.90;50.00;17.00;103084.00;;;;5046231;28;20229;-46
2022/03/18 03:12:34;;;;;;;2.70;2.50;;;15.90;49.90;17.00;103069.00;;;;5046277;28;20225;-44
2022/03/18 03:14:59;;;;;;;2.90;2.70;;;15.90;49.90;17.00;103071.00;;;;5046582;28;20222;-46
2022/03/18 03:17:25;;;;;;;2.90;2.70;;;15.90;49.90;17.00;103075.00;;;;5046298;28;20674;-48
2022/03/18 03:19:51;;;;;;;3.03;2.83;;;15.80;49.90;16.90;103070.00;;;;5046516;28;20170;-46
2022/03/18 03:22:17;;;;;;;3.03;2.83;;;15.80;49.90;16.90;103075.00;;;;5045889;28;20236;-46
2022/03/18 03:24:42;;;;;;;2.83;2.60;;;15.80;50.00;16.90;103079.00;;;;5046614;28;20284;-44
2022/03/18 03:27:08;;;;;;;2.80;2.60;;;15.80;50.00;16.90;103084.00;;;;5045841;28;20209;-45
2022/03/18 03:29:34;;;;;;;2.83;2.63;;;15.80;50.00;16.90;103089.00;;;;5046252;28;20181;-47
2022/03/18 03:31:59;;;;;;;2.90;2.60;;;15.80;50.00;16.90;103091.00;;;;5045561;28;20847;-47
2022/03/18 03:34:25;;;;;;;3.20;2.90;;;15.80;50.00;16.90;103084.00;;;;5046419;28;20175;-45
2022/03/18 03:36:52;;;;;;;2.87;2.67;;;15.80;49.90;16.80;103086.00;;;;5046690;28;20313;-45
2022/03/18 03:39:18;;;;;;;2.93;2.73;;;15.80;49.90;16.80;103094.00;;;;5046472;28;20283;-45
2022/03/18 03:41:43;;;;;;;2.83;2.63;;;15.80;50.50;16.80;103097.00;;;;5045483;28;20846;-45
2022/03/18 03:44:09;;;;;;;2.60;2.40;;;15.70;49.90;16.80;103096.00;;;;5048820;28;20671;-45
2022/03/18 03:46:35;;;;;;;2.70;2.50;;;15.70;49.70;16.80;103091.00;;;;5049362;28;20213;-45
2022/03/18 03:49:01;;;;;;;2.90;2.70;;;15.70;49.80;16.80;103094.00;;;;5049562;28;20198;-46
2022/03/18 03:51:26;;;;;;;3.00;2.80;;;15.70;49.70;16.70;103090.00;;;;5048976;28;20174;-45
2022/03/18 03:53:52;;;;;;;3.00;2.80;;;15.70;49.90;16.70;103095.00;;;;5049370;28;20189;-46
2022/03/18 03:56:18;;;;;;;2.70;2.50;;;15.70;49.90;16.70;103085.00;;;;5049533;28;20195;-45
2022/03/18 03:58:43;;;;;;;2.73;2.53;;;15.60;49.90;16.70;103087.00;;;;5049498;28;20175;-44
2022/03/18 04:01:09;;;;;;;2.50;2.30;;;15.60;49.80;16.70;103084.00;;;;5049141;28;20543;-44
2022/03/18 04:03:35;;;;;;;2.63;2.43;;;15.60;49.80;16.70;103093.00;;;;5049071;28;20174;-46
2022/03/18 04:06:01;;;;;;;2.80;2.50;;;15.60;49.80;16.70;103092.00;;;;5049216;28;20550;-43
2022/03/18 04:08:27;;;;;;;2.70;2.50;;;15.60;49.90;16.70;103101.00;;;;5049218;28;20198;-47
2022/03/18 04:10:54;;;;;;;3.07;2.87;;;15.60;49.90;16.60;103096.00;;;;5049578;28;20159;-46
2022/03/18 04:13:20;;;;;;;3.07;2.43;;;15.60;49.80;16.60;103099.00;;;;5048909;28;20219;-45
2022/03/18 04:15:47;;;;;;;2.60;2.40;;;15.60;49.80;16.60;103083.00;;;;5048426;28;20220;-47
2022/03/18 04:18:12;;;;;;;2.97;2.77;;;15.50;49.80;16.60;103103.00;;;;5049165;28;20281;-46
2022/03/18 04:20:38;;;;;;;2.67;2.47;;;15.50;49.80;16.60;103103.00;;;;5049889;28;20178;-45
2022/03/18 04:23:04;;;;;;;2.70;2.50;;;15.50;49.90;16.60;103103.00;;;;5049248;28;20189;-44
2022/03/18 04:25:32;;;;;;;3.00;2.70;;;15.50;49.80;16.60;103111.00;;;;5049095;28;20201;-45
2022/03/18 04:27:58;;;;;;;8.90;2.70;;;15.50;49.80;16.60;103116.00;;;;5048844;28;20214;-45
2022/03/18 04:30:24;;;;;;;3.87;2.53;;;15.50;50.10;16.50;103119.00;;;;5048599;28;20178;-45
2022/03/18 04:32:50;;;;;;;5.63;2.60;;;15.60;50.30;16.50;103122.00;;;;5048364;28;20169;-45
2022/03/18 04:35:16;;;;;;;4.17;2.73;;;15.50;50.10;16.50;103122.00;;;;5049120;28;20801;-44
2022/03/18 04:37:42;;;;;;;3.63;2.70;;;15.50;50.00;16.50;103128.00;;;;5044007;28;20241;-46
2022/03/18 04:40:12;;;;;;;3.00;2.63;;;15.50;50.00;16.50;103129.00;;;;5046132;28;20190;-46
2022/03/18 04:42:38;;;;;;;2.93;2.50;;;15.50;50.20;16.50;103125.00;;;;5046345;28;20778;-45
2022/03/18 04:45:05;;;;;;;2.90;2.60;;;15.40;50.10;16.50;103128.00;;;;5048376;28;20159;-43
2022/03/18 04:47:33;;;;;;;2.80;2.60;;;15.40;50.20;16.50;103118.00;;;;5048200;28;20217;-45
2022/03/18 04:50:00;;;;;;;3.07;2.70;;;15.40;50.20;16.40;103112.00;;;;5048283;28;20174;-46
2022/03/18 04:52:26;;;;;;;4.87;2.80;;;15.40;50.20;16.40;103112.00;;;;5047183;28;20265;-46
2022/03/18 04:54:52;;;;;;;3.13;2.50;;;15.40;50.20;16.40;103100.00;;;;5047432;28;20189;-46
2022/03/18 04:57:20;;;;;;;3.10;2.80;;;15.30;50.10;16.40;103120.00;;;;5057343;28;20194;-45
2022/03/18 04:59:47;;;;;;;3.83;2.60;;;15.40;50.10;16.40;103119.00;;;;5058426;28;20174;-47
2022/03/18 05:02:14;;;;;;;4.23;2.80;;;15.30;50.10;16.40;103112.00;;;;5067254;28;20705;-46
2022/03/18 05:04:41;;;;;;;2.90;2.40;;;15.30;50.20;16.30;103116.00;;;;5048383;28;20317;-44
2022/03/18 05:07:07;;;;;;;2.80;2.60;;;15.20;50.20;16.30;103124.00;;;;5047723;28;20198;-46
2022/03/18 05:09:33;;;;;;;3.00;2.70;;;15.30;50.30;16.30;103122.00;;;;5047737;28;20628;-48
2022/03/18 05:11:59;;;;;;;3.23;2.80;;;15.30;50.30;16.30;103124.00;;;;5047790;28;20174;-44
2022/03/18 05:14:25;;;;;;;2.70;2.50;;;15.30;50.30;16.30;103132.00;;;;5047520;28;20174;-45
2022/03/18 05:16:52;;;;;;;2.90;2.60;;;15.20;50.30;16.30;103133.00;;;;5047502;28;20195;-44
2022/03/18 05:19:18;;;;;;;2.70;2.50;;;15.20;50.40;16.30;103140.00;;;;5047059;28;20178;-44
2022/03/18 05:21:43;;;;;;;3.23;2.30;;;15.20;50.50;16.20;103160.00;;;;5047263;28;20198;-44
2022/03/18 05:24:09;;;;;;;3.93;2.70;;;15.20;50.60;16.20;103171.00;;;;5047519;28;20275;-46
2022/03/18 05:26:36;;;;;;;2.90;2.70;;;15.20;50.60;16.20;103168.00;;;;5047678;28;20190;-44
2022/03/18 05:29:03;;;;;;;2.60;2.40;;;15.20;50.60;16.20;103171.00;;;;5047639;28;20204;-45
2022/03/18 05:31:31;;;;;;;3.17;2.60;;;15.10;50.60;16.20;103169.00;;;;5045842;28;20166;-44
2022/03/18 05:33:57;;;;;;;3.27;2.50;;;15.10;50.60;16.20;103181.00;;;;5047219;28;20178;-44
2022/03/18 05:36:22;;;;;;;5.07;2.70;;;15.10;50.50;16.20;103178.00;;;;5063027;28;20279;-46
2022/03/18 05:38:48;;;;;;;3.53;2.60;;;15.10;50.40;16.10;103178.00;;;;5047309;28;20175;-45
2022/03/18 05:41:14;;;;;;;3.10;2.80;;;15.00;50.30;16.10;103191.00;;;;5046967;28;20175;-44
2022/03/18 05:43:40;;;;;;;2.97;2.67;;;15.10;50.30;16.10;103202.00;;;;5045547;28;20591;-45
2022/03/18 05:46:07;;;;;;;3.10;2.87;;;15.00;50.30;16.10;103201.00;;;;5047218;28;20209;-45
2022/03/18 05:48:32;;;;;;;3.33;2.80;;;15.00;50.10;16.10;103212.00;;;;5047339;28;20202;-45
2022/03/18 05:51:00;;;;;;;3.40;3.10;;;15.00;50.10;16.10;103214.00;;;;5047024;28;20179;-45
2022/03/18 05:53:26;;;;;;;3.07;2.70;;;14.90;50.00;16.00;103222.00;;;;5046734;28;20842;-45
2022/03/18 05:58:36;;;;;;;3.17;2.60;;;14.90;50.00;16.00;103220.00;;;;5048456;28;20300;-48
2022/03/18 06:01:03;;;;;;;3.30;2.70;;;15.00;50.10;16.00;103217.00;;;;5046050;28;20171;-45
2022/03/18 06:03:28;;;;;;;4.63;2.77;;;14.90;50.00;16.00;103222.00;;;;5047155;28;20253;-45
2022/03/18 06:05:54;;;;;;;3.20;2.73;;;14.90;50.10;16.00;103212.00;;;;5062800;28;20190;-46
2022/03/18 06:13:47;;;;;;;3.03;2.63;;;14.90;50.00;15.90;103239.00;;;;5046516;28;20177;-43
2022/03/18 06:16:13;;;;;;;2.77;2.50;;;14.90;50.00;15.90;103253.00;;;;5046844;28;20682;-47
2022/03/18 06:18:39;;;;;;;2.80;2.60;;;14.80;49.90;15.90;103252.00;;;;5047345;28;20178;-44
2022/03/18 06:21:08;;;;;;;3.97;2.83;;;14.80;49.90;15.50;103248.00;;;;5054347;28;20166;-46
2022/03/18 06:23:34;;;;;;;2.63;2.40;;;14.80;49.90;15.90;103260.00;;;;5045804;28;20415;-43
2022/03/18 06:26:01;;;;;;;2.87;2.63;;;14.80;49.90;15.80;103271.00;;;;5046361;28;20538;-45
2022/03/18 06:28:27;;;;;;;3.27;2.97;;;14.80;50.00;15.80;103275.00;;;;5047110;28;20678;-46
2022/03/18 06:30:53;;;;;;;2.80;2.50;;;14.80;49.90;15.80;103259.00;;;;5046815;28;20166;-48
2022/03/18 06:33:19;;;;;;;2.60;2.40;;;14.80;50.00;15.80;103265.00;;;;5046276;28;20169;-47
2022/03/18 06:35:44;;;;;;;2.97;2.67;;;14.70;49.80;15.80;103255.00;;;;5045510;28;20170;-45
2022/03/18 06:38:10;;;;;;;2.80;2.50;;;14.70;49.80;15.70;103249.00;;;;5046634;28;20209;-46
2022/03/18 06:40:36;;;;;;;3.00;2.70;;;14.70;49.80;15.70;103261.00;;;;5046347;28;20171;-46
2022/03/18 06:43:02;;;;;;;2.80;2.60;;;14.70;49.80;15.70;103264.00;;;;5046343;28;20182;-45
2022/03/18 06:45:27;;;;;;;3.00;2.50;;;14.70;49.80;15.70;103271.00;;;;5046212;28;20548;-46
2022/03/18 06:47:53;;;;;;;3.13;2.83;;;14.70;49.80;15.70;103264.00;;;;5046245;28;20198;-47
2022/03/18 06:50:19;;;;;;;2.93;2.53;;;14.70;49.80;15.70;103278.00;;;;5046382;28;20171;-45
2022/03/18 06:52:44;;;;;;;3.40;2.73;;;14.70;49.80;15.70;103273.00;;;;5046005;28;20179;-45
2022/03/18 06:55:10;;;;;;;2.53;2.33;;;14.70;50.40;15.70;103286.00;;;;5046330;28;20586;-46
2022/03/18 06:57:36;;;;;;;3.13;2.60;;;14.60;49.80;15.60;103299.00;;;;5046189;28;20194;-45
2022/03/18 07:00:03;;;;;;;2.73;2.53;;;14.60;49.70;15.60;103297.00;;;;5046477;28;20204;-45
2022/03/18 07:02:29;;;;;;;2.50;2.30;;;14.60;49.80;15.60;103297.00;;;;5045119;28;20220;-46
2022/03/18 07:04:55;;;;;;;2.70;2.50;;;14.60;49.80;15.60;103309.00;;;;5046570;28;20816;-46
2022/03/18 07:07:21;;;;;;;3.70;2.70;;;14.60;49.80;15.60;103311.00;;;;5046224;28;20206;-46
2022/03/18 07:09:46;;;;;;;2.83;2.63;;;14.60;49.80;15.60;103306.00;;;;5045931;28;20178;-46
2022/03/18 07:12:12;;;;;;;3.00;2.70;;;14.50;49.70;15.60;103298.00;;;;5044448;28;20179;-46
2022/03/18 07:14:38;;;;;;;2.63;2.43;;;14.50;49.70;15.50;103298.00;;;;5045973;28;20170;-46
2022/03/18 07:19:49;;;;;;;2.50;2.30;;;14.50;49.80;15.50;103297.00;;;;5049786;28;20166;-46
2022/03/18 07:22:15;;;;;;;2.90;2.70;;;14.50;49.80;15.50;103301.00;;;;5049484;28;20724;-45
2022/03/18 07:24:40;;;;;;;2.87;2.50;;;14.50;49.80;15.50;103303.00;;;;5049514;28;20178;-47
2022/03/18 07:27:06;;;;;;;2.77;2.57;;;14.50;49.80;15.50;103299.00;;;;5049699;28;20300;-46
2022/03/18 07:29:32;;;;;;;2.50;2.30;;;14.50;49.80;15.50;103313.00;;;;5050016;28;20793;-45
2022/03/18 07:31:58;;;;;;;2.77;2.40;;;14.50;49.80;15.50;103305.00;;;;5049238;28;20190;-44
2022/03/18 07:34:24;;;;;;;3.50;2.80;;;14.50;49.80;15.50;103312.00;;;;5049580;28;20169;-46
2022/03/18 07:36:50;;;;;;;2.63;2.43;;;14.50;49.90;15.40;103293.00;;;;5049627;28;20190;-47
2022/03/18 07:39:16;;;;;;;3.37;2.30;;;14.50;49.90;15.40;103294.00;;;;5049815;28;20177;-45
2022/03/18 07:41:42;;;;;;;2.60;2.40;;;14.50;49.90;15.40;103296.00;;;;5049058;28;20293;-45
2022/03/18 07:44:07;;;;;;;2.80;2.60;;;14.50;49.90;15.40;103303.00;;;;5049339;28;20231;-45
2022/03/18 07:46:33;;;;;;;2.60;2.40;;;14.40;49.80;15.40;103279.00;;;;5049166;28;20228;-47
2022/03/18 07:48:59;;;;;;;3.30;2.70;;;14.50;49.90;15.40;103303.00;;;;5048025;28;20669;-46
2022/03/18 07:51:24;;;;;;;3.00;2.70;;;14.40;49.90;15.40;103304.00;;;;5048937;28;20552;-46
2022/03/18 07:53:50;;;;;;;2.80;2.60;;;14.50;50.00;15.40;103296.00;;;;5048828;28;20178;-44
2022/03/18 07:56:16;;;;;;;2.77;2.57;;;14.40;50.00;15.40;103296.00;;;;5049873;28;20713;-46
2022/03/18 07:58:42;;;;;;;3.10;2.80;;;14.40;50.00;15.30;103285.00;;;;5049566;28;20182;-45
2022/03/18 08:01:07;;;;;;;3.37;2.70;;;14.40;50.00;15.30;103287.00;;;;5048560;28;20170;-46
2022/03/18 08:03:33;;;;;;;2.60;2.40;;;14.40;50.00;15.30;103289.00;;;;5050230;28;20181;-43
2022/03/18 08:05:59;;;;;;;2.60;2.40;;;14.40;50.00;15.30;103298.00;;;;5049708;28;20217;-42
2022/03/18 08:08:25;;;;;;;2.73;2.53;;;14.40;50.00;15.30;103297.00;;;;5049613;28;20186;-45
2022/03/18 08:10:51;;;;;;;3.10;2.80;;;14.40;50.00;15.30;103320.00;;;;5049457;28;20568;-45
2022/03/18 08:13:17;;;;;;;3.17;2.50;;;14.40;50.00;15.30;103304.00;;;;5048554;28;20174;-43
2022/03/18 08:15:44;;;;;;;4.50;2.60;;;14.40;50.00;15.30;103296.00;;;;5047590;28;20193;-44
2022/03/18 08:18:10;;;;;;;2.90;2.60;;;14.40;50.10;15.30;103301.00;;;;5032792;28;20198;-45
2022/03/18 08:20:40;;;;;;;2.77;2.57;;;14.40;50.10;15.30;103306.00;;;;5050162;28;20768;-46
2022/03/18 08:23:15;;;;;;;2.50;2.30;;;14.30;50.10;15.30;103309.00;;;;5048482;28;20173;-46
2022/03/18 08:25:41;;;;;;;2.60;2.40;;;14.30;50.20;15.30;103304.00;;;;5047293;28;20182;-46
2022/03/18 08:28:07;;;;;;;2.83;2.50;;;14.30;50.30;15.30;103299.00;;;;5048770;28;20289;-44
2022/03/18 08:30:36;;;;;;;2.70;2.50;;;14.30;50.30;15.30;103294.00;;;;5046628;28;20471;-45
2022/03/18 08:33:02;;;;;;;2.70;2.50;;;14.40;50.40;15.20;103293.00;;;;5047427;28;20257;-44
2022/03/18 08:35:28;;;;;;;2.60;2.40;;;14.40;50.40;15.30;103299.00;;;;5047328;28;20258;-44
2022/03/18 08:37:57;;;;;;;2.87;2.60;;;14.30;50.40;15.30;103307.00;;;;4966270;28;20320;-44
2022/03/18 08:40:34;;;;;;;2.93;2.60;;;14.30;50.50;15.20;103310.00;;;;5049170;28;20194;-45
2022/03/18 08:43:04;;;;;;;3.10;2.77;;;14.30;50.90;15.20;103332.00;;;;5055298;28;20197;-44
2022/03/18 08:45:30;;;;;;;3.03;2.40;;;14.30;51.50;15.20;103325.00;;;;5068397;28;20173;-44
2022/03/18 08:47:56;;;;;;;3.17;2.63;;;14.40;51.90;15.20;103321.00;;;;5059224;28;20193;-44
2022/03/18 08:50:22;;;;;;;3.10;2.30;;;14.60;51.80;15.30;103329.00;;;;5047865;28;20174;-43
2022/03/18 08:52:49;;;;;;;3.57;2.50;;;14.80;51.50;15.40;103322.00;;;;5047312;28;20182;-45
2022/03/18 08:55:15;;;;;;;2.80;2.37;;;15.00;51.40;15.50;103327.00;;;;5047194;28;20253;-45
2022/03/18 08:57:41;;;;;;;2.50;2.30;;;15.10;51.20;15.60;103328.00;;;;5047223;28;20247;-44
2022/03/18 09:00:09;;;;;;;2.60;2.40;;;15.20;51.20;15.60;103334.00;;;;5047494;28;20178;-45
2022/03/18 09:02:36;;;;;;;3.03;2.40;;;15.30;51.20;15.70;103323.00;;;;5047533;28;20171;-46
2022/03/18 09:05:03;;;;;;;3.70;2.30;;;15.40;51.20;15.80;103322.00;;;;5048492;28;20247;-44
2022/03/18 09:07:28;;;;;;;4.37;2.50;;;15.40;51.10;15.80;103331.00;;;;5047935;28;20264;-45
2022/03/18 09:09:54;;;;;;;2.53;2.33;;;15.50;51.20;15.90;103321.00;;;;5047967;28;20198;-43
2022/03/18 09:12:20;;;;;;;2.30;2.10;;;15.50;51.20;15.90;103342.00;;;;5047617;28;20175;-43
2022/03/18 09:14:46;;;;;;;2.37;2.17;;;15.60;51.30;16.00;103354.00;;;;5049367;28;20173;-44
2022/03/18 09:17:11;;;;;;;2.53;2.20;;;15.60;51.20;16.00;103351.00;;;;5048195;28;20646;-43
2022/03/18 09:19:37;;;;;;;2.97;2.40;;;15.60;51.40;16.10;103341.00;;;;5048219;28;20166;-47
2022/03/18 09:22:07;;;;;;;3.70;2.37;;;15.70;52.10;16.10;103349.00;;;;5047938;28;20178;-44
2022/03/18 09:24:37;;;;;;;3.10;2.57;;;15.70;52.00;16.10;103354.00;;;;5047792;28;20193;-46
2022/03/18 09:27:03;;;;;;;7.17;2.50;;;15.80;52.10;16.20;103349.00;;;;5047717;28;20266;-44
2022/03/18 09:29:29;;;;;;;6.20;2.30;;;15.90;52.30;16.20;103364.00;;;;5046593;28;20356;-46
2022/03/18 09:31:55;;;;;;;4.73;2.17;;;15.90;52.20;16.30;103359.00;;;;5047080;28;20811;-45
2022/03/18 09:34:26;;;;;;;4.87;2.47;;;15.90;52.20;16.30;103356.00;;;;5047688;28;20170;-44
2022/03/18 09:36:53;;;;;;;6.53;2.30;;;16.00;52.30;16.40;103363.00;;;;5047459;28;20748;-44
2022/03/18 09:39:20;;;;;;;5.10;2.37;;;16.10;52.30;16.40;103363.00;;;;5029759;28;20174;-44
2022/03/18 09:41:45;;;;;;;5.33;2.20;;;16.10;52.20;16.50;103371.00;;;;5047397;28;20170;-47
2022/03/18 09:44:11;;;;;;;6.33;2.60;;;16.20;52.30;16.50;103381.00;;;;5047691;28;20170;-45
2022/03/18 09:46:37;;;;;;;6.23;2.80;;;16.20;52.50;16.60;103376.00;;;;5046237;28;20198;-46
2022/03/18 09:49:06;;;;;;;7.93;2.53;;;16.30;52.60;16.60;103384.00;;;;5047702;28;20616;-44
2022/03/18 09:51:32;;;;;;;6.73;2.60;;;16.30;52.90;16.70;103382.00;;;;5045942;28;20216;-46
2022/03/18 09:53:59;;;;;;;4.50;2.40;;;16.30;52.60;16.70;103375.00;;;;5047425;28;20178;-45
2022/03/18 09:56:24;;;;;;;5.20;2.20;;;16.30;52.50;16.70;103335.00;;;;5047472;28;20197;-46
2022/03/18 09:58:50;;;;;;;2.77;2.20;;;16.30;52.30;16.80;103390.00;;;;5047275;28;20185;-44
2022/03/18 10:01:17;;;;;;;5.17;2.20;;;16.40;52.50;16.80;103397.00;;;;5046825;28;20170;-45
2022/03/18 10:03:44;;;;;;;6.43;2.20;;;16.40;52.40;16.80;103391.00;;;;5047203;28;20167;-46
2022/03/18 10:06:11;;;;;;;3.97;2.10;;;16.40;52.40;16.80;103399.00;;;;5051870;28;20170;-45
2022/03/18 10:08:41;;;;;;;3.07;2.00;;;16.40;52.50;16.90;103392.00;;;;5055032;28;20225;-46
2022/03/18 10:11:23;;;;;;;3.90;2.00;;;16.40;52.00;16.90;103384.00;;;;5048245;28;20185;-47
2022/03/18 10:14:02;;;;;;;4.90;2.30;;;16.30;51.90;16.90;103388.00;;;;5047015;28;20241;-46
2022/03/18 10:16:38;;;;;;;3.33;2.27;;;16.30;51.70;16.90;103373.00;;;;4950046;28;20194;-45
2022/03/18 10:19:17;;;;;;;4.17;1.83;;;16.30;51.80;16.90;103385.00;;;;5047833;28;20208;-45
2022/03/18 10:22:00;;;;;;;4.90;2.30;;;16.30;51.90;16.90;103376.00;;;;5046637;28;20149;-46
2022/03/18 10:24:31;;;;;;;3.10;1.80;;;16.30;51.80;16.90;103395.00;;;;5046805;28;20769;-45
2022/03/18 10:27:17;;;;;;;5.83;2.10;;;16.30;51.70;16.90;103376.00;;;;5046257;28;20190;-45
2022/03/18 10:29:53;;;;;;;2.63;1.67;;;16.30;51.60;16.90;103380.00;;;;5046420;28;20159;-45
2022/03/18 10:32:21;;;;;;;1.93;1.77;;;16.30;51.20;16.90;103376.00;;;;5046279;28;20158;-46
2022/03/18 10:37:46;;;;;;;3.20;1.80;;;16.30;50.90;16.90;103378.00;;;;5046621;28;20239;-47
2022/03/18 10:40:12;;;;;;;4.27;1.70;;;16.30;51.00;16.90;103382.00;;;;5046651;28;20154;-41
2022/03/18 10:42:38;;;;;;;3.93;1.90;;;16.30;50.90;16.90;103374.00;;;;5046309;28;20197;-48
2022/03/18 10:45:04;;;;;;;2.03;1.70;;;16.30;50.70;16.90;103376.00;;;;5045738;28;20244;-46
2022/03/18 10:47:38;;;;;;;3.70;1.80;;;16.30;50.70;16.90;103393.00;;;;5046600;28;20930;-43
2022/03/18 10:50:29;;;;;;;1.70;1.60;;;16.30;50.60;16.90;103379.00;;;;5046356;28;20151;-47
2022/03/18 10:53:06;;;;;;;3.57;1.80;;;16.30;50.60;16.90;103373.00;;;;5047336;28;20515;-45
2022/03/18 10:55:39;;;;;;;3.20;2.03;;;16.30;50.60;16.90;103383.00;;;;5050738;28;20158;-44
2022/03/18 10:58:18;;;;;;;3.57;1.90;;;16.30;50.70;16.90;103384.00;;;;5050277;28;20850;-45
2022/03/18 11:00:46;;;;;;;2.13;1.90;;;16.30;50.30;16.90;103383.00;;;;5050339;28;20182;-43
2022/03/18 11:03:13;;;;;;;2.10;1.70;;;16.30;50.30;16.90;103383.00;;;;5050533;28;20215;-46
2022/03/18 11:05:45;;;;;;;1.87;1.60;;;16.30;50.20;16.90;103385.00;;;;5050425;28;20178;-46
2022/03/18 11:08:21;;;;;;;3.27;1.60;;;16.30;50.20;16.90;103388.00;;;;5049909;28;20206;-46